createdAt,value
2023-05-09T00:00:24.042Z,27.38
2023-05-09T00:01:24.067Z,26.69
2023-05-09T00:02:24.160Z,26.93
2023-05-09T00:03:24.087Z,26.36
2023-05-09T00:04:24.110Z,27.39
2023-05-09T00:05:24.077Z,28.27
2023-05-09T00:06:24.095Z,29.50
2023-05-09T00:07:24.120Z,27.68
2023-05-09T00:08:24.162Z,28.58
2023-05-09T00:09:24.196Z,27.82
2023-05-09T00:10:24.208Z,28.93
2023-05-09T00:11:24.357Z,28.64
2023-05-09T00:12:24.280Z,27.55
2023-05-09T00:13:24.364Z,27.90
2023-05-09T00:14:24.292Z,28.12
2023-05-09T00:15:24.234Z,28.41
2023-05-09T00:16:24.355Z,29.47
2023-05-09T00:17:24.266Z,30.22
2023-05-09T00:18:24.147Z,29.42
2023-05-09T00:19:24.385Z,26.83
2023-05-09T00:20:24.093Z,28.54
2023-05-09T00:21:24.047Z,28.49
2023-05-09T00:22:24.009Z,27.20
2023-05-09T00:23:24.011Z,28.59
2023-05-09T00:24:24.043Z,27.84
2023-05-09T00:25:24.045Z,26.77
2023-05-09T00:26:24.018Z,27.04
2023-05-09T00:27:24.072Z,27.53
2023-05-09T00:28:23.952Z,27.19
2023-05-09T00:29:23.924Z,27.27
2023-05-09T00:30:23.926Z,28.27
2023-05-09T00:31:23.892Z,28.18
2023-05-09T00:32:23.894Z,27.69
2023-05-09T00:33:23.847Z,27.78
2023-05-09T00:34:23.834Z,27.71
2023-05-09T00:35:23.889Z,26.78
2023-05-09T00:36:23.904Z,28.27
2023-05-09T00:37:23.941Z,26.56
2023-05-09T00:38:23.994Z,27.91
2023-05-09T00:39:24.031Z,30.24
2023-05-09T00:40:24.084Z,27.27
2023-05-09T00:41:24.132Z,29.81
2023-05-09T00:42:24.184Z,30.84
2023-05-09T00:43:24.285Z,29.64
2023-05-09T00:44:24.240Z,28.25
2023-05-09T00:45:24.189Z,28.44
2023-05-09T00:46:24.257Z,28.38
2023-05-09T00:47:24.254Z,29.42
2023-05-09T00:48:24.137Z,30.59
2023-05-09T00:49:24.083Z,29.38
2023-05-09T00:50:24.062Z,28.08
2023-05-09T00:51:24.032Z,26.60
2023-05-09T00:52:23.994Z,27.99
2023-05-09T00:53:23.959Z,26.89
2023-05-09T00:54:24.001Z,26.15
2023-05-09T00:55:24.016Z,28.35
2023-05-09T00:56:24.037Z,26.91
2023-05-09T00:57:24.038Z,26.87
2023-05-09T00:58:24.069Z,27.68
2023-05-09T00:59:24.221Z,28.65
2023-05-09T01:00:24.211Z,28.87
2023-05-09T01:01:24.257Z,27.29
2023-05-09T01:02:24.296Z,27.94
2023-05-09T01:03:24.293Z,26.61
2023-05-09T01:04:24.315Z,25.00
2023-05-09T01:05:24.327Z,28.28
2023-05-09T01:06:24.368Z,23.98
2023-05-09T01:07:24.398Z,25.00
2023-05-09T01:08:24.439Z,25.02
2023-05-09T01:09:24.464Z,25.91
2023-05-09T01:10:24.506Z,26.16
2023-05-09T01:11:24.533Z,26.47
2023-05-09T01:12:24.580Z,25.97
2023-05-09T01:13:24.666Z,25.00
2023-05-09T01:14:24.682Z,25.19
2023-05-09T01:15:24.765Z,25.45
2023-05-09T01:16:24.817Z,29.08
2023-05-09T01:17:24.744Z,28.74
2023-05-09T01:18:24.815Z,25.76
2023-05-09T01:19:24.822Z,28.89
2023-05-09T01:20:24.874Z,25.09
2023-05-09T01:21:24.889Z,25.78
2023-05-09T01:22:24.932Z,26.40
2023-05-09T01:23:24.960Z,25.00
2023-05-09T01:24:25.005Z,28.76
2023-05-09T01:25:25.030Z,27.14
2023-05-09T01:26:25.087Z,29.36
2023-05-09T01:27:25.054Z,29.48
2023-05-09T01:28:25.014Z,29.09
2023-05-09T01:29:24.986Z,27.75
2023-05-09T01:30:24.973Z,23.36
2023-05-09T01:31:25.054Z,23.37
2023-05-09T01:32:24.931Z,24.25
2023-05-09T01:33:24.899Z,27.01
2023-05-09T01:34:24.884Z,27.94
2023-05-09T01:35:24.849Z,30.23
2023-05-09T01:36:24.816Z,29.94
2023-05-09T01:37:24.789Z,28.31
2023-05-09T01:38:24.789Z,26.68
2023-05-09T01:39:24.785Z,26.56
2023-05-09T01:40:24.791Z,25.97
2023-05-09T01:41:24.866Z,25.00
2023-05-09T01:42:24.832Z,25.45
2023-05-09T01:43:24.870Z,27.31
2023-05-09T01:44:24.872Z,27.15
2023-05-09T01:45:24.865Z,29.69
2023-05-09T01:46:24.880Z,29.81
2023-05-09T01:47:24.914Z,29.93
2023-05-09T01:48:24.821Z,28.14
2023-05-09T01:49:24.768Z,25.87
2023-05-09T01:50:24.760Z,29.78
2023-05-09T01:51:24.738Z,29.40
2023-05-09T01:52:24.671Z,28.08
2023-05-09T01:53:24.640Z,25.75
2023-05-09T01:54:24.686Z,26.87
2023-05-09T01:55:24.604Z,26.88
2023-05-09T01:56:24.588Z,25.00
2023-05-09T01:57:24.546Z,27.94
2023-05-09T01:58:24.520Z,26.81
2023-05-09T01:59:24.544Z,28.06
2023-05-09T02:00:24.588Z,25.00
2023-05-09T02:01:24.687Z,26.38
2023-05-09T02:02:24.735Z,27.21
2023-05-09T02:03:24.875Z,28.49
2023-05-09T02:04:24.694Z,26.57
2023-05-09T02:05:24.745Z,31.91
2023-05-09T02:06:24.790Z,28.61
2023-05-09T02:07:24.802Z,28.99
2023-05-09T02:08:24.831Z,28.18
2023-05-09T02:09:24.916Z,26.50
2023-05-09T02:10:24.844Z,26.65
2023-05-09T02:11:24.842Z,26.71
2023-05-09T02:12:24.812Z,27.09
2023-05-09T02:13:24.829Z,25.30
2023-05-09T02:14:24.749Z,23.71
2023-05-09T02:15:24.735Z,26.71
2023-05-09T02:16:24.744Z,30.71
2023-05-09T02:17:24.646Z,27.77
2023-05-09T02:18:24.635Z,29.39
2023-05-09T02:19:24.741Z,28.67
2023-05-09T02:20:24.689Z,26.63
2023-05-09T02:21:24.718Z,26.58
2023-05-09T02:22:24.740Z,26.56
2023-05-09T02:23:24.771Z,26.34
2023-05-09T02:24:24.753Z,26.28
2023-05-09T02:25:24.766Z,29.90
2023-05-09T02:26:24.794Z,27.71
2023-05-09T02:27:24.834Z,29.36
2023-05-09T02:28:24.830Z,30.43
2023-05-09T02:29:24.819Z,30.56
2023-05-09T02:30:24.771Z,30.63
2023-05-09T02:31:24.770Z,30.47
2023-05-09T02:32:24.750Z,28.18
2023-05-09T02:33:24.698Z,30.90
2023-05-09T02:34:24.670Z,34.56
2023-05-09T02:35:24.708Z,30.47
2023-05-09T02:36:24.616Z,27.80
2023-05-09T02:37:24.581Z,30.81
2023-05-09T02:38:24.505Z,31.08
2023-05-09T02:39:24.476Z,31.29
2023-05-09T02:40:24.491Z,32.65
2023-05-09T02:41:24.437Z,33.83
2023-05-09T02:42:24.402Z,29.32
2023-05-09T02:43:24.366Z,30.99
2023-05-09T02:44:24.352Z,26.46
2023-05-09T02:45:24.325Z,27.59
2023-05-09T02:46:24.348Z,29.08
2023-05-09T02:47:24.300Z,30.70
2023-05-09T02:48:24.295Z,26.21
2023-05-09T02:49:32.092Z,29.06
2023-05-09T02:50:25.255Z,29.42
2023-05-09T02:51:24.305Z,29.71
2023-05-09T02:52:24.193Z,31.24
2023-05-09T02:53:24.195Z,34.03
2023-05-09T02:54:24.129Z,36.31
2023-05-09T02:55:24.098Z,37.63
2023-05-09T02:56:24.090Z,37.82
2023-05-09T02:57:24.057Z,37.88
2023-05-09T02:58:24.022Z,37.72
2023-05-09T02:59:23.993Z,36.96
2023-05-09T03:00:23.954Z,37.83
2023-05-09T03:01:24.093Z,35.22
2023-05-09T03:02:24.009Z,34.64
2023-05-09T03:03:23.975Z,34.74
2023-05-09T03:04:23.875Z,32.64
2023-05-09T03:05:23.829Z,34.62
2023-05-09T03:06:23.807Z,32.23
2023-05-09T03:07:23.885Z,33.27
2023-05-09T03:08:23.771Z,34.35
2023-05-09T03:09:23.710Z,32.35
2023-05-09T03:10:23.692Z,29.02
2023-05-09T03:11:23.659Z,26.35
2023-05-09T03:12:23.646Z,27.69
2023-05-09T03:13:23.764Z,28.02
2023-05-09T03:14:23.620Z,28.46
2023-05-09T03:15:23.642Z,25.90
2023-05-09T03:16:23.845Z,26.10
2023-05-09T03:17:23.713Z,27.26
2023-05-09T03:18:23.707Z,29.90
2023-05-09T03:19:23.669Z,30.62
2023-05-09T03:20:23.653Z,30.70
2023-05-09T03:21:23.663Z,29.92
2023-05-09T03:22:23.654Z,28.14
2023-05-09T03:23:23.655Z,28.05
2023-05-09T03:24:23.664Z,26.63
2023-05-09T03:25:23.697Z,27.71
2023-05-09T03:26:23.698Z,27.47
2023-05-09T03:27:23.711Z,29.67
2023-05-09T03:28:23.688Z,29.77
2023-05-09T03:29:23.775Z,32.60
2023-05-09T03:30:23.737Z,31.03
2023-05-09T03:31:23.723Z,28.48
2023-05-09T03:32:23.798Z,28.80
2023-05-09T03:33:23.693Z,29.84
2023-05-09T03:34:23.695Z,29.50
2023-05-09T03:35:23.714Z,29.28
2023-05-09T03:36:23.752Z,31.23
2023-05-09T03:37:26.214Z,30.43
2023-05-09T03:38:23.750Z,30.61
2023-05-09T03:39:23.817Z,31.00
2023-05-09T03:40:23.752Z,32.44
2023-05-09T03:41:23.684Z,31.10
2023-05-09T03:42:23.638Z,35.67
2023-05-09T03:43:23.622Z,33.71
2023-05-09T03:44:23.576Z,32.35
2023-05-09T03:45:23.583Z,32.04
2023-05-09T03:46:23.548Z,32.13
2023-05-09T03:47:23.522Z,32.63
2023-05-09T03:48:23.483Z,32.49
2023-05-09T03:49:23.448Z,32.47
2023-05-09T03:50:23.464Z,35.99
2023-05-09T03:51:23.434Z,36.55
2023-05-09T03:52:23.473Z,33.75
2023-05-09T03:53:23.469Z,31.41
2023-05-09T03:54:23.495Z,31.95
2023-05-09T03:55:23.617Z,32.15
2023-05-09T03:56:23.510Z,29.69
2023-05-09T03:57:23.541Z,31.17
2023-05-09T03:58:23.566Z,31.69
2023-05-09T03:59:23.606Z,32.70
2023-05-09T04:00:23.646Z,31.01
2023-05-09T04:01:23.609Z,30.32
2023-05-09T04:02:23.654Z,27.81
2023-05-09T04:03:23.701Z,27.97
2023-05-09T04:04:23.605Z,29.41
2023-05-09T04:05:23.610Z,33.03
2023-05-09T04:06:23.617Z,29.39
2023-05-09T04:07:23.648Z,29.58
2023-05-09T04:08:23.661Z,32.14
2023-05-09T04:09:23.668Z,29.69
2023-05-09T04:10:23.654Z,31.79
2023-05-09T04:11:23.663Z,31.04
2023-05-09T04:12:23.657Z,29.62
2023-05-09T04:13:23.742Z,28.51
2023-05-09T04:14:23.661Z,28.65
2023-05-09T04:15:23.611Z,28.95
2023-05-09T04:16:23.590Z,28.45
2023-05-09T04:17:23.785Z,30.18
2023-05-09T04:18:23.552Z,28.90
2023-05-09T04:19:23.543Z,28.92
2023-05-09T04:20:23.508Z,27.96
2023-05-09T04:21:23.467Z,30.93
2023-05-09T04:22:23.470Z,31.14
2023-05-09T04:23:23.438Z,31.58
2023-05-09T04:24:23.428Z,31.63
2023-05-09T04:25:23.476Z,33.23
2023-05-09T04:26:23.374Z,33.70
2023-05-09T04:27:23.472Z,33.71
2023-05-09T04:28:23.337Z,32.00
2023-05-09T04:29:23.309Z,32.24
2023-05-09T04:30:23.284Z,32.86
2023-05-09T04:31:23.396Z,33.90
2023-05-09T04:32:23.314Z,34.74
2023-05-09T04:33:23.249Z,36.55
2023-05-09T04:34:23.204Z,34.98
2023-05-09T04:35:23.274Z,35.20
2023-05-09T04:36:23.148Z,35.85
2023-05-09T04:37:23.133Z,35.67
2023-05-09T04:38:23.091Z,33.71
2023-05-09T04:39:23.073Z,33.68
2023-05-09T04:40:24.339Z,35.92
2023-05-09T04:41:23.015Z,33.68
2023-05-09T04:42:22.991Z,31.93
2023-05-09T04:43:23.051Z,34.34
2023-05-09T04:44:22.946Z,31.76
2023-05-09T04:45:22.934Z,32.73
2023-05-09T04:46:25.567Z,32.71
2023-05-09T04:47:22.916Z,35.44
2023-05-09T04:48:22.838Z,34.54
2023-05-09T04:49:22.833Z,34.95
2023-05-09T04:50:22.797Z,35.94
2023-05-09T04:51:22.767Z,35.52
2023-05-09T04:52:22.724Z,31.30
2023-05-09T04:53:22.725Z,31.23
2023-05-09T04:54:22.671Z,30.34
2023-05-09T04:55:22.651Z,30.94
2023-05-09T04:56:22.620Z,30.81
2023-05-09T04:57:22.593Z,33.22
2023-05-09T04:58:22.562Z,33.06
2023-05-09T04:59:22.655Z,31.26
2023-05-09T05:00:22.494Z,29.98
2023-05-09T05:01:22.502Z,29.21
2023-05-09T05:02:22.476Z,26.98
2023-05-09T05:03:22.472Z,25.25
2023-05-09T05:04:22.465Z,28.01
2023-05-09T05:06:22.363Z,26.33
2023-05-09T05:07:22.342Z,26.72
2023-05-09T05:08:22.294Z,26.99
2023-05-09T05:09:22.275Z,24.51
2023-05-09T05:10:22.239Z,25.20
2023-05-09T05:11:22.207Z,27.59
2023-05-09T05:12:22.174Z,27.17
2023-05-09T05:13:22.238Z,28.35
2023-05-09T05:14:22.130Z,29.88
2023-05-09T05:15:22.079Z,28.91
2023-05-09T05:16:22.116Z,31.18
2023-05-09T05:17:22.094Z,25.89
2023-05-09T05:18:22.012Z,29.56
2023-05-09T05:19:21.997Z,28.41
2023-05-09T05:20:21.945Z,26.18
2023-05-09T05:21:21.925Z,26.46
2023-05-09T05:22:21.915Z,26.78
2023-05-09T05:23:21.918Z,28.19
2023-05-09T05:24:21.856Z,28.91
2023-05-09T05:25:21.853Z,29.37
2023-05-09T05:26:21.821Z,27.80
2023-05-09T05:27:21.790Z,27.26
2023-05-09T05:28:21.777Z,28.89
2023-05-09T05:29:21.732Z,29.75
2023-05-09T05:30:21.805Z,28.89
2023-05-09T05:31:21.783Z,31.42
2023-05-09T05:32:21.772Z,33.15
2023-05-09T05:33:21.638Z,31.99
2023-05-09T05:34:21.619Z,30.73
2023-05-09T05:35:22.282Z,32.90
2023-05-09T05:36:21.702Z,32.75
2023-05-09T05:37:21.657Z,21.05
2023-05-09T05:38:21.500Z,15.23
2023-05-09T05:39:21.477Z,16.72
2023-05-09T05:40:21.537Z,25.00
2023-05-09T05:41:21.477Z,26.10
2023-05-09T05:42:21.529Z,28.33
2023-05-09T05:43:21.825Z,27.84
2023-05-09T05:44:22.351Z,25.72
2023-05-09T05:45:21.572Z,25.28
2023-05-09T05:46:22.409Z,25.25
2023-05-09T05:47:21.608Z,25.00
2023-05-09T05:48:21.532Z,30.88
2023-05-09T05:49:21.608Z,31.59
2023-05-09T05:50:21.656Z,29.15
2023-05-09T05:51:21.590Z,27.23
2023-05-09T05:52:21.677Z,26.87
2023-05-09T05:53:21.633Z,26.16
2023-05-09T05:54:21.583Z,26.59
2023-05-09T05:55:21.614Z,14.54
2023-05-09T05:56:21.605Z,25.00
2023-05-09T05:57:21.547Z,25.88
2023-05-09T05:58:21.523Z,22.67
2023-05-09T05:59:21.565Z,25.00
2023-05-09T06:00:21.575Z,23.58
2023-05-09T06:01:21.616Z,25.75
2023-05-09T06:02:21.707Z,29.23
2023-05-09T06:03:21.907Z,25.00
2023-05-09T06:04:22.061Z,26.84
2023-05-09T06:05:21.822Z,25.00
2023-05-09T06:06:21.893Z,25.00
2023-05-09T06:07:21.947Z,26.25
2023-05-09T06:08:26.282Z,25.00
2023-05-09T06:09:21.981Z,25.29
2023-05-09T06:10:21.956Z,27.35
2023-05-09T06:11:21.953Z,33.35
2023-05-09T06:12:21.959Z,46.39
2023-05-09T06:13:22.169Z,60.53
2023-05-09T06:14:21.922Z,71.96
2023-05-09T06:15:21.927Z,62.41
2023-05-09T06:16:22.036Z,64.13
2023-05-09T06:17:23.824Z,58.57
2023-05-09T06:18:21.992Z,49.73
2023-05-09T06:19:21.958Z,43.56
2023-05-09T06:20:22.101Z,29.28
2023-05-09T06:21:21.901Z,26.59
2023-05-09T06:22:21.870Z,27.46
2023-05-09T06:23:22.135Z,28.11
2023-05-09T06:24:34.481Z,27.20
2023-05-09T06:25:21.871Z,27.41
2023-05-09T06:26:22.201Z,29.13
2023-05-09T06:27:21.877Z,32.61
2023-05-09T06:28:21.847Z,37.95
2023-05-09T06:29:21.818Z,44.00
2023-05-09T06:30:26.353Z,39.69
2023-05-09T06:31:24.910Z,39.82
2023-05-09T06:32:21.785Z,39.76
2023-05-09T06:33:22.153Z,31.70
2023-05-09T06:34:21.784Z,21.96
2023-05-09T06:35:22.384Z,16.16
2023-05-09T06:36:21.802Z,9.25
2023-05-09T06:37:21.792Z,24.85
2023-05-09T06:38:21.817Z,25.00
2023-05-09T06:39:21.780Z,32.99
2023-05-09T06:40:22.519Z,29.91
2023-05-09T06:41:21.828Z,25.71
2023-05-09T06:42:21.766Z,27.13
2023-05-09T06:43:21.857Z,31.43
2023-05-09T06:44:21.772Z,32.71
2023-05-09T06:45:22.008Z,41.44
2023-05-09T06:46:21.835Z,42.01
2023-05-09T06:47:21.777Z,45.64
2023-05-09T06:48:21.743Z,52.91
2023-05-09T06:49:21.744Z,68.52
2023-05-09T06:50:21.780Z,84.94
2023-05-09T06:51:21.749Z,93.29
2023-05-09T06:52:21.738Z,100.03
2023-05-09T06:53:21.778Z,100.19
2023-05-09T06:54:21.715Z,100.58
2023-05-09T06:55:21.723Z,100.52
2023-05-09T06:57:41.106Z,25.00
2023-05-09T06:58:40.955Z,25.00
2023-05-09T06:59:40.902Z,25.00
2023-05-09T07:00:40.870Z,25.00
2023-05-09T07:01:40.966Z,25.00
2023-05-09T07:02:41.015Z,26.16
2023-05-09T07:03:40.869Z,30.01
2023-05-09T07:04:41.625Z,26.81
2023-05-09T07:05:40.852Z,29.12
2023-05-09T07:06:40.929Z,31.59
2023-05-09T07:07:40.812Z,34.17
2023-05-09T07:08:40.905Z,42.45
2023-05-09T07:09:40.824Z,51.00
2023-05-09T07:10:40.788Z,56.07
2023-05-09T07:11:40.777Z,61.04
2023-05-09T07:12:40.775Z,61.13
2023-05-09T07:13:40.733Z,66.26
2023-05-09T07:14:40.747Z,67.25
2023-05-09T07:15:42.731Z,72.74
2023-05-09T07:16:40.876Z,72.50
2023-05-09T07:17:40.832Z,72.93
2023-05-09T07:18:40.884Z,71.90
2023-05-09T07:19:40.821Z,67.44
2023-05-09T07:20:40.819Z,57.84
2023-05-09T07:21:41.856Z,44.98
2023-05-09T07:22:40.995Z,33.29
2023-05-09T07:23:41.736Z,36.84
2023-05-09T07:24:49.633Z,32.55
2023-05-09T07:25:40.976Z,32.91
2023-05-09T07:26:41.582Z,35.06
2023-05-09T07:27:41.688Z,38.52
2023-05-09T07:28:40.966Z,41.05
2023-05-09T07:29:40.920Z,47.21
2023-05-09T07:30:40.890Z,56.56
2023-05-09T07:31:41.643Z,61.39
2023-05-09T07:32:40.917Z,52.96
2023-05-09T07:33:40.858Z,55.96
2023-05-09T07:34:42.490Z,56.89
2023-05-09T07:35:41.330Z,55.51
2023-05-09T07:36:41.587Z,46.58
2023-05-09T07:37:40.826Z,51.51
2023-05-09T07:38:40.835Z,62.21
2023-05-09T07:39:40.787Z,69.62
2023-05-09T07:40:41.751Z,67.56
2023-05-09T07:41:40.830Z,60.01
2023-05-09T07:42:40.733Z,56.84
2023-05-09T07:43:40.715Z,53.77
2023-05-09T07:44:40.667Z,43.97
2023-05-09T07:47:00.062Z,25.00
2023-05-09T07:48:02.725Z,25.00
2023-05-09T07:49:01.462Z,25.00
2023-05-09T07:50:02.872Z,25.00
2023-05-09T07:51:00.527Z,25.00
2023-05-09T07:51:59.817Z,25.00
2023-05-09T07:52:59.765Z,25.00
2023-05-09T07:53:59.884Z,25.00
2023-05-09T07:54:59.776Z,25.30
2023-05-09T07:55:59.737Z,30.40
2023-05-09T07:56:59.776Z,24.97
2023-05-09T07:57:59.847Z,25.05
2023-05-09T07:58:59.704Z,16.80
2023-05-09T07:59:59.690Z,5.35
2023-05-09T08:00:59.841Z,0.00
2023-05-09T08:01:59.700Z,0.00
2023-05-09T08:02:59.888Z,25.61
2023-05-09T08:03:59.713Z,25.29
2023-05-09T08:04:59.663Z,25.00
2023-05-09T08:05:59.613Z,26.57
2023-05-09T08:06:59.618Z,25.11
2023-05-09T08:07:59.570Z,25.00
2023-05-09T08:09:00.046Z,25.16
2023-05-09T08:09:59.595Z,25.11
2023-05-09T08:10:59.482Z,25.64
2023-05-09T08:11:59.481Z,26.99
2023-05-09T08:12:59.486Z,30.75
2023-05-09T08:14:01.049Z,39.19
2023-05-09T08:14:59.415Z,39.11
2023-05-09T08:15:59.498Z,44.30
2023-05-09T08:16:59.379Z,51.49
2023-05-09T08:17:59.438Z,56.24
2023-05-09T08:18:59.452Z,60.93
2023-05-09T08:19:59.321Z,52.69
2023-05-09T08:20:59.306Z,53.14
2023-05-09T08:21:59.281Z,54.00
2023-05-09T08:22:59.306Z,54.37
2023-05-09T08:23:59.274Z,55.34
2023-05-09T08:24:59.224Z,55.17
2023-05-09T08:25:59.413Z,50.31
2023-05-09T08:26:59.209Z,55.48
2023-05-09T08:27:59.176Z,55.89
2023-05-09T08:28:59.180Z,54.05
2023-05-09T08:29:59.189Z,38.63
2023-05-09T08:30:59.198Z,34.36
2023-05-09T08:31:59.180Z,20.62
2023-05-09T08:32:59.161Z,5.29
2023-05-09T08:33:59.067Z,0.00
2023-05-09T08:34:59.105Z,0.00
2023-05-09T08:35:59.124Z,25.00
2023-05-09T08:36:59.056Z,26.38
2023-05-09T08:37:59.027Z,37.74
2023-05-09T08:39:03.748Z,27.38
2023-05-09T08:39:59.968Z,27.58
2023-05-09T08:40:58.961Z,28.07
2023-05-09T08:41:59.020Z,30.15
2023-05-09T08:42:59.512Z,31.04
2023-05-09T08:44:02.165Z,36.25
2023-05-09T08:44:59.042Z,28.21
2023-05-09T08:45:58.996Z,31.06
2023-05-09T08:46:59.584Z,39.56
2023-05-09T08:47:58.985Z,55.73
2023-05-09T08:48:59.516Z,79.99
2023-05-09T08:49:58.831Z,92.36
2023-05-09T08:50:58.797Z,98.16
2023-05-09T08:51:58.778Z,105.35
2023-05-09T08:52:58.745Z,111.67
2023-05-09T08:53:58.710Z,115.71
2023-05-09T08:54:58.721Z,121.91
2023-05-09T08:55:58.725Z,127.92
2023-05-09T08:56:58.717Z,133.57
2023-05-09T08:57:58.725Z,145.03
2023-05-09T08:58:58.640Z,151.17
2023-05-09T08:59:58.580Z,155.73
2023-05-09T09:00:58.772Z,156.31
2023-05-09T09:01:58.660Z,158.98
2023-05-09T09:02:58.607Z,165.42
2023-05-09T09:03:58.588Z,177.24
2023-05-09T09:04:58.835Z,191.69
2023-05-09T09:05:58.551Z,201.92
2023-05-09T09:06:58.425Z,206.63
2023-05-09T09:07:58.420Z,208.34
2023-05-09T09:08:58.622Z,216.14
2023-05-09T09:09:58.682Z,220.28
2023-05-09T09:10:58.507Z,225.42
2023-05-09T09:11:58.723Z,230.10
2023-05-09T09:12:58.720Z,233.65
2023-05-09T09:14:00.153Z,233.85
2023-05-09T09:14:58.570Z,235.12
2023-05-09T09:15:58.568Z,238.67
2023-05-09T09:16:59.119Z,243.83
2023-05-09T09:18:59.137Z,234.68
2023-05-09T09:19:58.344Z,238.74
2023-05-09T09:20:58.306Z,246.19
2023-05-09T09:21:58.320Z,257.48
2023-05-09T09:22:58.293Z,273.88
2023-05-09T09:23:59.233Z,248.82
2023-05-09T09:24:59.066Z,249.74
2023-05-09T09:26:00.034Z,249.04
2023-05-09T09:26:58.220Z,247.95
2023-05-09T09:27:58.123Z,248.77
2023-05-09T09:28:58.170Z,248.67
2023-05-09T09:29:58.163Z,249.42
2023-05-09T09:30:58.112Z,249.68
2023-05-09T09:31:58.082Z,249.84
2023-05-09T09:32:58.019Z,250.02
2023-05-09T09:33:58.174Z,250.68
2023-05-09T09:34:57.932Z,254.61
2023-05-09T09:35:57.992Z,256.41
2023-05-09T09:36:57.897Z,265.09
2023-05-09T09:38:00.129Z,250.53
2023-05-09T09:38:57.908Z,253.10
2023-05-09T09:39:57.921Z,257.74
2023-05-09T09:40:58.002Z,264.84
2023-05-09T09:41:58.041Z,274.74
2023-05-09T09:42:58.579Z,254.06
2023-05-09T09:43:58.852Z,250.00
2023-05-09T09:44:58.077Z,248.76
2023-05-09T09:45:58.497Z,250.00
2023-05-09T09:46:58.563Z,248.01
2023-05-09T09:47:58.183Z,249.94
2023-05-09T09:48:58.099Z,248.33
2023-05-09T09:49:58.019Z,245.83
2023-05-09T09:50:58.054Z,241.40
2023-05-09T09:51:58.590Z,241.40
2023-05-09T09:52:58.020Z,241.39
2023-05-09T09:53:58.030Z,242.54
2023-05-09T09:54:58.071Z,240.77
2023-05-09T09:55:58.030Z,240.25
2023-05-09T09:56:58.008Z,246.86
2023-05-09T09:57:57.998Z,242.78
2023-05-09T09:58:58.001Z,247.05
2023-05-09T09:59:58.017Z,245.07
2023-05-09T10:00:58.029Z,246.82
2023-05-09T10:01:58.075Z,249.14
2023-05-09T10:02:58.255Z,249.71
2023-05-09T10:03:58.613Z,248.25
2023-05-09T10:04:58.083Z,250.00
2023-05-09T10:05:58.107Z,241.48
2023-05-09T10:06:57.984Z,244.45
2023-05-09T10:07:57.981Z,240.77
2023-05-09T10:08:57.948Z,244.05
2023-05-09T10:09:57.957Z,243.88
2023-05-09T10:10:57.914Z,244.60
2023-05-09T10:11:57.913Z,245.07
2023-05-09T10:12:57.992Z,246.31
2023-05-09T10:13:57.972Z,244.97
2023-05-09T10:14:57.855Z,249.89
2023-05-09T10:15:58.069Z,245.01
2023-05-09T10:16:58.015Z,244.51
2023-05-09T10:17:58.182Z,250.01
2023-05-09T10:18:57.813Z,244.94
2023-05-09T10:19:58.078Z,247.62
2023-05-09T10:20:57.743Z,245.98
2023-05-09T10:21:57.703Z,247.77
2023-05-09T10:22:57.699Z,247.36
2023-05-09T10:23:57.674Z,246.89
2023-05-09T10:24:57.862Z,244.89
2023-05-09T10:25:58.711Z,247.77
2023-05-09T10:26:57.612Z,250.86
2023-05-09T10:27:57.806Z,247.51
2023-05-09T10:28:57.581Z,245.42
2023-05-09T10:29:57.550Z,245.79
2023-05-09T10:30:57.551Z,248.32
2023-05-09T10:31:57.584Z,245.50
2023-05-09T10:32:58.114Z,243.40
2023-05-09T10:33:57.533Z,247.11
2023-05-09T10:34:57.409Z,248.33
2023-05-09T10:35:57.380Z,248.07
2023-05-09T10:36:57.375Z,245.17
2023-05-09T10:37:57.382Z,247.44
2023-05-09T10:38:58.211Z,249.56
2023-05-09T10:39:59.125Z,245.58
2023-05-09T10:40:57.261Z,243.38
2023-05-09T10:41:57.231Z,241.59
2023-05-09T10:42:57.321Z,243.38
2023-05-09T10:43:57.218Z,243.41
2023-05-09T10:44:57.122Z,243.24
2023-05-09T10:45:57.131Z,244.64
2023-05-09T10:46:57.119Z,246.81
2023-05-09T10:47:57.678Z,246.36
2023-05-09T10:48:57.036Z,247.27
2023-05-09T10:49:57.121Z,246.34
2023-05-09T10:50:56.908Z,247.21
2023-05-09T10:51:56.856Z,249.34
2023-05-09T10:52:56.869Z,247.19
2023-05-09T10:53:56.817Z,250.00
2023-05-09T10:54:56.805Z,247.82
2023-05-09T10:55:56.793Z,247.70
2023-05-09T10:56:56.708Z,247.39
2023-05-09T10:57:57.579Z,246.73
2023-05-09T10:58:56.631Z,248.19
2023-05-09T10:59:56.786Z,248.83
2023-05-09T11:00:57.405Z,247.60
2023-05-09T11:01:56.660Z,247.52
2023-05-09T11:02:57.189Z,246.01
2023-05-09T11:03:56.600Z,245.79
2023-05-09T11:04:56.615Z,245.43
2023-05-09T11:05:56.504Z,247.78
2023-05-09T11:06:57.857Z,246.96
2023-05-09T11:07:56.309Z,247.04
2023-05-09T11:08:56.274Z,247.38
2023-05-09T11:09:57.112Z,249.24
2023-05-09T11:10:56.281Z,246.71
2023-05-09T11:11:56.174Z,248.40
2023-05-09T11:12:58.060Z,246.16
2023-05-09T11:13:56.105Z,246.43
2023-05-09T11:14:57.616Z,245.29
2023-05-09T11:15:56.083Z,248.85
2023-05-09T11:16:55.990Z,246.54
2023-05-09T11:17:56.004Z,246.57
2023-05-09T11:18:55.915Z,246.89
2023-05-09T11:19:55.878Z,245.62
2023-05-09T11:20:55.872Z,246.76
2023-05-09T11:21:55.872Z,246.03
2023-05-09T11:22:56.594Z,245.34
2023-05-09T11:23:55.798Z,246.51
2023-05-09T11:24:55.813Z,247.87
2023-05-09T11:25:55.925Z,247.94
2023-05-09T11:26:55.763Z,247.83
2023-05-09T11:27:56.757Z,248.95
2023-05-09T11:28:55.577Z,248.79
2023-05-09T11:29:56.191Z,248.36
2023-05-09T11:30:56.594Z,248.20
2023-05-09T11:31:55.543Z,247.28
2023-05-09T11:32:55.570Z,248.32
2023-05-09T11:33:55.574Z,248.46
2023-05-09T11:34:55.828Z,246.97
2023-05-09T11:35:55.288Z,246.82
2023-05-09T11:36:56.127Z,246.94
2023-05-09T11:37:55.397Z,246.43
2023-05-09T11:38:55.180Z,246.10
2023-05-09T11:39:55.182Z,245.76
2023-05-09T11:40:55.095Z,243.43
2023-05-09T11:41:55.058Z,244.25
2023-05-09T11:42:58.023Z,241.09
2023-05-09T11:43:54.956Z,241.16
2023-05-09T11:44:54.958Z,239.80
2023-05-09T11:45:54.887Z,238.25
2023-05-09T11:46:54.837Z,240.27
2023-05-09T11:47:54.863Z,238.14
2023-05-09T11:48:54.722Z,241.16
2023-05-09T11:49:54.695Z,232.90
2023-05-09T11:50:54.620Z,218.83
2023-05-09T11:51:54.640Z,208.19
2023-05-09T11:52:54.605Z,203.05
2023-05-09T11:53:54.716Z,200.38
2023-05-09T11:54:54.552Z,200.11
2023-05-09T11:55:54.439Z,197.67
2023-05-09T11:56:54.387Z,199.23
2023-05-09T11:57:54.438Z,200.45
2023-05-09T11:58:54.363Z,197.76
2023-05-09T11:59:54.296Z,201.08
2023-05-09T12:00:54.259Z,199.14
2023-05-09T12:01:54.216Z,198.05
2023-05-09T12:02:54.317Z,202.28
2023-05-09T12:03:54.299Z,202.69
2023-05-09T12:04:54.117Z,203.89
2023-05-09T12:05:54.020Z,205.19
2023-05-09T12:06:53.998Z,205.56
2023-05-09T12:07:53.963Z,207.90
2023-05-09T12:08:53.930Z,210.69
2023-05-09T12:09:54.028Z,209.31
2023-05-09T12:10:54.003Z,216.03
2023-05-09T12:11:53.910Z,219.72
2023-05-09T12:12:53.892Z,224.44
2023-05-09T12:13:53.872Z,226.00
2023-05-09T12:14:53.844Z,228.12
2023-05-09T12:15:53.898Z,230.15
2023-05-09T12:16:53.855Z,229.41
2023-05-09T12:17:53.848Z,231.73
2023-05-09T12:18:53.798Z,232.21
2023-05-09T12:19:54.120Z,234.38
2023-05-09T12:20:53.713Z,234.55
2023-05-09T12:21:53.768Z,234.91
2023-05-09T12:22:53.640Z,236.26
2023-05-09T12:23:53.613Z,237.42
2023-05-09T12:24:53.606Z,240.11
2023-05-09T12:25:53.600Z,241.23
2023-05-09T12:26:53.615Z,242.00
2023-05-09T12:27:53.450Z,241.02
2023-05-09T12:28:53.410Z,242.75
2023-05-09T12:29:55.041Z,243.27
2023-05-09T12:30:53.369Z,242.96
2023-05-09T12:31:53.469Z,244.07
2023-05-09T12:32:53.288Z,242.79
2023-05-09T12:33:53.206Z,242.96
2023-05-09T12:34:53.152Z,243.40
2023-05-09T12:35:54.592Z,243.96
2023-05-09T12:36:53.072Z,243.04
2023-05-09T12:37:53.023Z,243.76
2023-05-09T12:38:52.970Z,244.53
2023-05-09T12:39:52.973Z,246.33
2023-05-09T12:40:52.885Z,248.43
2023-05-09T12:42:01.711Z,248.73
2023-05-09T12:42:53.850Z,248.87
2023-05-09T12:43:52.753Z,249.02
2023-05-09T12:44:52.728Z,249.37
2023-05-09T12:45:52.673Z,250.50
2023-05-09T12:46:52.698Z,250.61
2023-05-09T12:47:52.676Z,249.02
2023-05-09T12:48:52.586Z,247.99
2023-05-09T12:49:52.495Z,248.50